createdAt,value
2022-08-17T00:02:00.502Z,12.32
2022-08-17T00:04:31.353Z,12.20
2022-08-17T00:06:57.790Z,12.73
2022-08-17T00:09:24.235Z,14.05
2022-08-17T00:12:40.866Z,13.50
2022-08-17T00:14:37.316Z,11.85
2022-08-17T00:17:04.580Z,11.38
2022-08-17T00:19:32.496Z,11.38
2022-08-17T00:22:33.213Z,11.98
2022-08-17T00:24:46.934Z,12.20
2022-08-17T00:27:13.363Z,13.30
2022-08-17T00:29:39.813Z,14.68
2022-08-17T00:33:14.382Z,13.05
2022-08-17T00:34:52.905Z,12.27
2022-08-17T00:37:19.328Z,12.50
2022-08-17T00:39:45.799Z,13.18
2022-08-17T00:42:17.551Z,13.23
2022-08-17T00:44:44.454Z,13.60
2022-08-17T00:47:10.863Z,13.38
2022-08-17T00:49:37.286Z,13.90
2022-08-17T00:52:11.650Z,14.77
2022-08-17T00:54:42.861Z,13.75
2022-08-17T00:57:24.977Z,24.48
2022-08-17T01:00:03.316Z,14.43
2022-08-17T01:02:44.439Z,13.43
2022-08-17T01:05:21.129Z,13.90
2022-08-17T01:07:50.680Z,13.10
2022-08-17T01:10:59.041Z,17.10
2022-08-17T01:13:07.365Z,16.15
2022-08-17T01:15:41.276Z,13.88
2022-08-17T01:18:13.499Z,14.15
2022-08-17T01:20:48.839Z,13.30
2022-08-17T01:23:20.593Z,14.15
2022-08-17T01:28:53.227Z,14.88
2022-08-17T01:31:07.542Z,15.15
2022-08-17T01:33:34.382Z,15.82
2022-08-17T01:36:00.801Z,14.82
2022-08-17T01:38:31.547Z,15.27
2022-08-17T01:41:04.673Z,17.13
2022-08-17T01:43:38.963Z,16.30
2022-08-17T01:46:05.654Z,16.38
2022-08-17T01:48:33.925Z,15.68
2022-08-17T01:51:00.896Z,14.40
2022-08-17T01:53:39.877Z,14.82
2022-08-17T01:56:09.469Z,14.52
2022-08-17T01:58:36.491Z,14.75
2022-08-17T02:01:04.522Z,17.60
2022-08-17T02:03:31.997Z,14.98
2022-08-17T02:05:58.556Z,16.08
2022-08-17T02:08:37.135Z,16.02
2022-08-17T02:11:11.646Z,15.27
2022-08-17T02:13:38.880Z,18.45
2022-08-17T02:16:05.307Z,16.25
2022-08-17T02:18:31.729Z,15.25
2022-08-17T02:20:58.349Z,18.25
2022-08-17T02:23:26.909Z,16.83
2022-08-17T02:25:53.906Z,14.95
2022-08-17T02:28:20.325Z,14.65
2022-08-17T02:30:59.759Z,15.73
2022-08-17T02:33:43.188Z,15.30
2022-08-17T02:36:11.307Z,14.15
2022-08-17T02:38:38.644Z,14.88
2022-08-17T02:41:05.212Z,14.82
2022-08-17T02:43:31.880Z,14.90
2022-08-17T02:45:58.314Z,13.18
2022-08-17T02:48:31.446Z,16.15
2022-08-17T02:50:59.096Z,13.50
2022-08-17T02:53:25.937Z,14.73
2022-08-17T02:55:52.577Z,14.90
2022-08-17T02:58:34.698Z,14.60
2022-08-17T03:01:03.234Z,14.60
2022-08-17T03:03:29.725Z,15.25
2022-08-17T03:05:56.322Z,18.42
2022-08-17T03:08:23.349Z,14.40
2022-08-17T03:10:50.321Z,14.65
2022-08-17T03:13:16.959Z,14.80
2022-08-17T03:15:45.168Z,13.57
2022-08-17T03:18:19.285Z,14.32
2022-08-17T03:20:52.422Z,15.23
2022-08-17T03:23:18.866Z,13.70
2022-08-17T03:25:52.966Z,15.25
2022-08-17T03:28:20.073Z,15.38
2022-08-17T03:30:46.502Z,14.95
2022-08-17T03:33:13.044Z,16.08
2022-08-17T03:35:40.332Z,14.70
2022-08-17T03:38:08.569Z,14.43
2022-08-17T03:40:56.753Z,14.98
2022-08-17T03:43:22.598Z,14.73
2022-08-17T03:46:10.075Z,15.10
2022-08-17T03:49:14.577Z,18.00
2022-08-17T03:51:59.489Z,17.23
2022-08-17T03:54:44.216Z,17.98
2022-08-17T03:57:11.216Z,17.83
2022-08-17T03:59:38.720Z,18.00
2022-08-17T04:02:14.244Z,17.73
2022-08-17T04:04:40.681Z,17.52
2022-08-17T04:07:07.339Z,17.33
2022-08-17T04:09:34.012Z,18.17
2022-08-17T04:12:02.411Z,17.52
2022-08-17T04:14:39.193Z,18.17
2022-08-17T04:17:21.135Z,17.98
2022-08-17T04:19:47.564Z,16.98
2022-08-17T04:22:32.681Z,17.70
2022-08-17T04:25:04.277Z,18.00
2022-08-17T04:27:30.713Z,17.88
2022-08-17T04:29:58.408Z,17.88
2022-08-17T04:33:04.735Z,19.48
2022-08-17T04:35:11.252Z,19.10
2022-08-17T04:37:37.651Z,18.05
2022-08-17T04:40:27.433Z,17.15
2022-08-17T04:43:04.805Z,17.65
2022-08-17T04:45:32.309Z,17.38
2022-08-17T04:47:59.544Z,18.63
2022-08-17T04:50:26.026Z,17.95
2022-08-17T04:52:52.457Z,18.58
2022-08-17T04:55:18.983Z,18.35
2022-08-17T04:57:45.438Z,16.63
2022-08-17T05:00:12.248Z,18.33
2022-08-17T05:02:50.745Z,19.02
2022-08-17T05:05:22.885Z,19.48
2022-08-17T05:07:54.368Z,18.35
2022-08-17T05:10:25.450Z,20.13
2022-08-17T05:13:09.414Z,20.60
2022-08-17T05:15:38.981Z,19.10
2022-08-17T05:18:12.975Z,19.80
2022-08-17T05:20:40.708Z,19.70
2022-08-17T05:23:10.539Z,20.00
2022-08-17T05:25:48.720Z,20.15
2022-08-17T05:28:18.359Z,24.05
2022-08-17T05:30:45.786Z,22.45
2022-08-17T05:33:21.354Z,22.02
2022-08-17T05:38:16.808Z,21.95
2022-08-17T05:40:43.841Z,19.45
2022-08-17T05:43:14.983Z,19.17
2022-08-17T05:46:02.794Z,18.58
2022-08-17T05:48:39.592Z,19.63
2022-08-17T05:51:06.767Z,19.90
2022-08-17T05:53:44.045Z,19.52
2022-08-17T05:56:56.526Z,20.58
2022-08-17T05:59:59.668Z,19.10
2022-08-17T06:02:54.091Z,19.38
2022-08-17T06:05:38.940Z,19.85
2022-08-17T06:08:48.142Z,21.08
2022-08-17T06:11:42.305Z,18.17
2022-08-17T06:14:29.092Z,19.42
2022-08-17T06:17:00.978Z,18.70
2022-08-17T06:19:40.583Z,17.42
2022-08-17T06:22:08.749Z,18.75
2022-08-17T06:24:43.380Z,17.95
2022-08-17T06:27:25.570Z,17.95
2022-08-17T06:32:25.653Z,19.25
2022-08-17T06:34:52.547Z,21.98
2022-08-17T06:37:43.044Z,18.98
2022-08-17T06:40:15.588Z,15.75
2022-08-17T06:43:07.466Z,16.83
2022-08-17T06:45:42.257Z,15.57
2022-08-17T06:48:17.750Z,15.82
2022-08-17T06:50:49.780Z,21.80
2022-08-17T06:55:52.110Z,18.98
2022-08-17T06:58:22.225Z,12.95
2022-08-17T07:00:58.082Z,13.50
2022-08-17T07:03:54.649Z,14.90
2022-08-17T07:06:29.907Z,13.82
2022-08-17T07:09:28.033Z,15.40
2022-08-17T07:12:00.734Z,14.60
2022-08-17T07:14:31.897Z,12.40
2022-08-17T07:17:01.938Z,14.03
2022-08-17T07:19:31.621Z,12.23
2022-08-17T07:22:08.805Z,14.55
2022-08-17T07:24:57.647Z,14.32
2022-08-17T07:27:52.081Z,11.27
2022-08-17T07:30:25.674Z,12.55
2022-08-17T07:33:01.250Z,12.77
2022-08-17T07:35:31.275Z,13.90
2022-08-17T07:38:32.056Z,19.55
2022-08-17T07:41:01.808Z,11.60
2022-08-17T07:43:34.816Z,15.82
2022-08-17T07:46:39.725Z,11.38
2022-08-17T07:49:08.999Z,11.40
2022-08-17T07:51:43.704Z,12.35
2022-08-17T07:54:15.883Z,8.55
2022-08-17T07:57:08.335Z,12.98
2022-08-17T07:59:40.710Z,11.98
2022-08-17T08:02:38.563Z,12.25
2022-08-17T08:05:12.787Z,9.63
2022-08-17T08:07:48.225Z,8.48
2022-08-17T08:10:27.560Z,9.90
2022-08-17T08:13:24.045Z,12.50
2022-08-17T08:15:56.318Z,14.30
2022-08-17T08:18:55.041Z,9.88
2022-08-17T08:21:28.947Z,12.75
2022-08-17T08:24:01.396Z,11.10
2022-08-17T08:26:42.319Z,14.43
2022-08-17T08:29:28.065Z,10.23
2022-08-17T08:32:23.676Z,8.13
2022-08-17T08:35:11.343Z,11.55
2022-08-17T08:37:52.883Z,8.65
2022-08-17T08:40:38.289Z,10.43
2022-08-17T08:43:42.117Z,10.25
2022-08-17T08:46:39.465Z,6.38
2022-08-17T08:49:59.115Z,8.40
2022-08-17T08:52:49.870Z,8.98
2022-08-17T08:58:31.744Z,11.20
2022-08-17T09:00:58.306Z,11.98
2022-08-17T09:03:52.678Z,6.75
2022-08-17T09:06:39.835Z,7.95
2022-08-17T09:09:33.649Z,8.10
2022-08-17T09:12:25.847Z,6.13
2022-08-17T09:15:13.226Z,7.95
2022-08-17T09:19:03.565Z,10.00
2022-08-17T09:21:33.657Z,8.18
2022-08-17T09:24:32.970Z,6.90
2022-08-17T09:27:11.609Z,5.15
2022-08-17T09:29:41.274Z,5.63
2022-08-17T09:32:22.501Z,7.22
2022-08-17T09:35:00.169Z,7.72
2022-08-17T09:37:49.972Z,7.47
2022-08-17T09:40:24.437Z,4.50
2022-08-17T09:42:59.161Z,9.55
2022-08-17T09:45:35.915Z,7.72
2022-08-17T09:48:08.673Z,5.03
2022-08-17T09:51:05.377Z,7.38
2022-08-17T09:53:25.247Z,4.60
2022-08-17T09:55:57.934Z,5.15
2022-08-17T09:58:42.490Z,6.57
2022-08-17T10:01:31.463Z,5.53
2022-08-17T10:04:29.877Z,7.55
2022-08-17T10:07:12.705Z,5.45
2022-08-17T10:10:13.548Z,4.72
2022-08-17T10:12:54.100Z,6.00
2022-08-17T10:15:43.012Z,6.03
2022-08-17T10:18:32.173Z,5.00
2022-08-17T10:21:20.493Z,4.60
2022-08-17T10:24:19.028Z,6.70
2022-08-17T10:26:56.651Z,5.32
2022-08-17T10:29:47.334Z,6.45
2022-08-17T10:35:17.950Z,11.23
2022-08-17T10:37:47.267Z,4.20
2022-08-17T10:40:53.008Z,11.85
2022-08-17T10:43:38.413Z,7.15
2022-08-17T10:46:33.504Z,9.30
2022-08-17T10:49:20.979Z,8.73
2022-08-17T10:51:49.711Z,5.88
2022-08-17T10:54:24.964Z,9.45
2022-08-17T10:56:55.954Z,8.23
2022-08-17T10:59:34.549Z,5.63
2022-08-17T11:02:00.847Z,7.05
2022-08-17T11:04:39.153Z,9.65
2022-08-17T11:07:08.486Z,6.75
2022-08-17T11:09:58.311Z,6.30
2022-08-17T11:12:33.687Z,8.63
2022-08-17T11:15:16.260Z,10.95
2022-08-17T11:17:57.444Z,7.82
2022-08-17T11:20:38.349Z,9.45
2022-08-17T11:23:30.296Z,10.93
2022-08-17T11:25:58.855Z,8.55
2022-08-17T11:28:34.182Z,8.90
2022-08-17T11:31:23.583Z,9.20
2022-08-17T11:34:26.199Z,9.73
2022-08-17T11:37:00.919Z,19.80
2022-08-17T11:40:06.483Z,13.00
2022-08-17T11:42:57.083Z,10.15
2022-08-17T11:45:35.880Z,12.60
2022-08-17T11:48:40.609Z,12.43
2022-08-17T11:51:32.149Z,10.98
2022-08-17T11:54:33.763Z,9.50
2022-08-17T12:00:11.092Z,10.35
2022-08-17T12:02:48.475Z,10.75
2022-08-17T12:05:16.706Z,11.23
2022-08-17T12:07:46.930Z,12.60
2022-08-17T12:10:21.404Z,11.88
2022-08-17T12:12:50.141Z,12.15
2022-08-17T12:15:19.274Z,13.65
2022-08-17T12:17:53.747Z,14.75
2022-08-17T12:20:29.283Z,14.27
2022-08-17T12:23:04.805Z,13.65
2022-08-17T12:25:41.174Z,13.80
2022-08-17T12:28:28.561Z,14.82
2022-08-17T12:31:01.058Z,13.57
2022-08-17T12:33:28.855Z,13.75
2022-08-17T12:36:02.763Z,13.15
2022-08-17T12:38:34.296Z,15.88
2022-08-17T12:41:21.705Z,13.68
2022-08-17T12:44:01.999Z,12.77
2022-08-17T12:46:51.572Z,13.95
2022-08-17T12:49:42.103Z,18.33
2022-08-17T12:52:12.211Z,16.58
2022-08-17T12:54:51.165Z,16.27
2022-08-17T12:57:21.777Z,17.02
2022-08-17T13:00:08.744Z,17.65
2022-08-17T13:02:54.792Z,20.00
2022-08-17T13:05:29.099Z,19.70
2022-08-17T13:07:58.120Z,17.75
2022-08-17T13:10:33.441Z,18.02
2022-08-17T13:13:05.181Z,17.30
2022-08-17T13:18:28.129Z,18.38
2022-08-17T13:20:58.056Z,20.13
2022-08-17T13:23:26.177Z,18.33
2022-08-17T13:26:04.433Z,18.33
2022-08-17T13:28:36.281Z,19.08
2022-08-17T13:31:21.829Z,18.17
2022-08-17T13:33:49.188Z,22.58
2022-08-17T13:36:30.200Z,23.13
2022-08-17T13:39:13.390Z,21.70
2022-08-17T13:41:39.859Z,24.15
2022-08-17T13:44:37.082Z,17.15
2022-08-17T13:47:16.920Z,18.63
2022-08-17T13:49:49.048Z,18.25
2022-08-17T13:52:35.816Z,18.88
2022-08-17T13:55:18.355Z,22.67
2022-08-17T13:57:47.105Z,18.90
2022-08-17T14:00:18.763Z,21.42
2022-08-17T14:02:45.181Z,18.20
2022-08-17T14:05:11.730Z,18.42
2022-08-17T14:07:40.468Z,18.95
2022-08-17T14:10:17.233Z,19.50
2022-08-17T14:12:44.616Z,19.70
2022-08-17T14:15:13.753Z,21.77
2022-08-17T14:17:40.197Z,23.77
2022-08-17T14:20:09.612Z,22.73
2022-08-17T14:22:37.717Z,22.85
2022-08-17T14:25:05.071Z,26.48
2022-08-17T14:27:47.469Z,27.95
2022-08-17T14:30:20.007Z,24.33
2022-08-17T14:32:48.950Z,28.50
2022-08-17T14:35:16.062Z,28.30
2022-08-17T14:37:42.864Z,26.88
2022-08-17T14:40:11.763Z,23.23
2022-08-17T14:42:40.978Z,27.23
2022-08-17T14:45:31.874Z,28.80
2022-08-17T14:47:56.684Z,27.90
2022-08-17T14:50:24.064Z,30.05
2022-08-17T14:52:50.544Z,28.33
2022-08-17T14:55:18.216Z,29.65
2022-08-17T14:57:45.039Z,28.02
2022-08-17T15:00:11.974Z,28.60
2022-08-17T15:02:54.000Z,26.98
2022-08-17T15:05:25.881Z,31.35
2022-08-17T15:07:55.699Z,29.58
2022-08-17T15:10:22.420Z,26.65
2022-08-17T15:12:49.065Z,27.52
2022-08-17T15:15:16.947Z,26.95
2022-08-17T15:17:45.901Z,28.42
2022-08-17T15:20:15.614Z,34.67
2022-08-17T15:22:44.341Z,32.92
2022-08-17T15:25:11.545Z,35.60
2022-08-17T15:27:38.027Z,37.63
2022-08-17T15:30:05.956Z,37.60
2022-08-17T15:32:38.014Z,37.40
2022-08-17T15:35:06.485Z,39.47
2022-08-17T15:37:33.333Z,38.95
2022-08-17T15:40:02.946Z,43.85
2022-08-17T15:42:29.503Z,39.75
2022-08-17T15:44:56.033Z,43.35
2022-08-17T15:47:23.265Z,43.47
2022-08-17T15:49:50.747Z,46.47
2022-08-17T15:52:25.129Z,47.88
2022-08-17T15:54:56.625Z,43.03
2022-08-17T15:57:26.914Z,45.92
2022-08-17T15:59:58.886Z,42.65
2022-08-17T16:03:44.413Z,45.17
2022-08-17T16:05:25.183Z,48.13
2022-08-17T16:07:52.560Z,43.30
2022-08-17T16:10:19.706Z,41.35
2022-08-17T16:12:48.216Z,40.45
2022-08-17T16:15:15.318Z,40.47
2022-08-17T16:17:41.810Z,42.50
2022-08-17T16:20:19.601Z,42.53
2022-08-17T16:22:47.277Z,43.25
2022-08-17T16:25:20.299Z,41.83
2022-08-17T16:27:48.654Z,40.05
2022-08-17T16:30:17.649Z,43.45
2022-08-17T16:32:44.983Z,45.42
2022-08-17T16:35:12.146Z,44.22
2022-08-17T16:37:40.184Z,45.33
2022-08-17T16:40:11.778Z,40.75
2022-08-17T16:42:39.589Z,49.97
2022-08-17T16:45:16.761Z,50.00
2022-08-17T16:47:43.593Z,48.45
2022-08-17T16:50:12.548Z,45.28
2022-08-17T16:52:40.001Z,51.40
2022-08-17T16:55:08.675Z,51.95
2022-08-17T16:57:37.273Z,48.83
2022-08-17T17:00:15.937Z,45.35
2022-08-17T17:02:47.881Z,44.83
2022-08-17T17:05:37.689Z,46.15
2022-08-17T17:08:12.670Z,44.85
2022-08-17T17:10:45.673Z,42.55
2022-08-17T17:13:27.753Z,41.50
2022-08-17T17:16:21.741Z,42.60
2022-08-17T17:19:01.525Z,43.55
2022-08-17T17:21:35.367Z,44.70
2022-08-17T17:24:09.360Z,42.00
2022-08-17T17:26:57.969Z,39.75
2022-08-17T17:29:48.545Z,42.97
2022-08-17T17:32:44.460Z,41.72
2022-08-17T17:35:16.308Z,40.10
2022-08-17T17:40:23.749Z,37.45
2022-08-17T17:42:55.967Z,43.17
2022-08-17T17:45:23.815Z,41.42
2022-08-17T17:47:50.512Z,40.67
2022-08-17T17:50:19.200Z,44.35
2022-08-17T17:53:17.896Z,43.50
2022-08-17T17:56:34.933Z,42.83
2022-08-17T17:59:16.178Z,42.80
2022-08-17T18:02:36.854Z,44.35
2022-08-17T18:05:18.484Z,41.45
2022-08-17T18:07:54.216Z,37.08
2022-08-17T18:10:29.562Z,40.35
2022-08-17T18:13:08.973Z,40.70
2022-08-17T18:15:51.568Z,40.60
2022-08-17T18:18:17.899Z,41.65
2022-08-17T18:20:53.839Z,42.30
2022-08-17T18:23:27.695Z,40.97
2022-08-17T18:25:55.066Z,40.70
2022-08-17T18:28:26.736Z,42.35
2022-08-17T18:31:22.557Z,39.65
2022-08-17T18:33:51.593Z,40.60
2022-08-17T18:36:32.462Z,39.70
2022-08-17T18:39:17.653Z,42.25
2022-08-17T18:41:50.319Z,45.53
2022-08-17T18:44:25.338Z,43.75
2022-08-17T18:47:19.091Z,44.40
2022-08-17T18:50:10.855Z,42.03
2022-08-17T18:52:37.311Z,44.33
2022-08-17T18:55:16.416Z,42.47
2022-08-17T18:57:49.672Z,41.55
2022-08-17T19:00:20.458Z,41.67
2022-08-17T19:02:55.827Z,43.88
2022-08-17T19:05:33.386Z,42.92
2022-08-17T19:08:20.469Z,44.75
2022-08-17T19:10:49.259Z,39.53
2022-08-17T19:13:24.518Z,42.70
2022-08-17T19:16:13.027Z,42.00
2022-08-17T19:18:50.956Z,45.30
2022-08-17T19:25:19.433Z,43.58
2022-08-17T19:31:35.434Z,45.97
2022-08-17T19:34:01.906Z,47.38
2022-08-17T19:36:50.176Z,45.10
2022-08-17T19:39:38.366Z,47.28
2022-08-17T19:42:14.158Z,47.85
2022-08-17T19:48:39.049Z,50.35
2022-08-17T19:51:10.597Z,51.10
2022-08-17T19:54:04.913Z,49.50
2022-08-17T19:56:44.474Z,47.55
2022-08-17T19:59:36.018Z,43.58
2022-08-17T20:02:28.236Z,49.45
2022-08-17T20:04:59.165Z,44.53
2022-08-17T20:07:45.496Z,45.33
2022-08-17T20:10:30.855Z,40.72
2022-08-17T20:13:04.048Z,44.60
2022-08-17T20:15:34.416Z,46.70
2022-08-17T20:18:02.708Z,46.60
2022-08-17T20:20:47.242Z,45.50
2022-08-17T20:23:30.693Z,46.55
2022-08-17T20:26:08.366Z,48.15
2022-08-17T20:28:38.817Z,49.70
2022-08-17T20:31:38.688Z,51.67
2022-08-17T20:34:37.345Z,53.28
2022-08-17T20:37:13.045Z,52.10
2022-08-17T20:39:44.644Z,54.70
2022-08-17T20:42:30.763Z,55.28
2022-08-17T20:45:05.458Z,54.70
2022-08-17T20:47:55.339Z,54.47
2022-08-17T20:50:35.500Z,52.42
2022-08-17T20:55:51.426Z,50.88
2022-08-17T20:58:36.923Z,49.00
2022-08-17T21:01:12.134Z,52.17
2022-08-17T21:03:51.304Z,54.92
2022-08-17T21:06:20.481Z,53.72
2022-08-17T21:08:58.717Z,52.13
2022-08-17T21:11:56.864Z,52.63
2022-08-17T21:14:31.534Z,55.33
2022-08-17T21:17:01.335Z,51.63
2022-08-17T21:20:00.192Z,52.85
2022-08-17T21:23:00.762Z,54.55
2022-08-17T21:26:04.214Z,52.38
2022-08-17T21:29:30.230Z,53.78
2022-08-17T21:32:03.755Z,61.17
2022-08-17T21:34:37.813Z,61.08
2022-08-17T21:37:23.331Z,59.13
2022-08-17T21:39:57.498Z,58.78
2022-08-17T21:42:33.903Z,61.92
2022-08-17T21:45:22.407Z,62.17
2022-08-17T21:47:51.046Z,60.70
2022-08-17T21:50:23.462Z,57.97
2022-08-17T21:52:53.882Z,64.30
2022-08-17T21:55:28.009Z,63.03
2022-08-17T21:58:13.502Z,65.20
2022-08-17T22:00:41.733Z,63.65
2022-08-17T22:03:22.454Z,66.97
2022-08-17T22:05:51.126Z,62.72
2022-08-17T22:08:26.799Z,66.07
2022-08-17T22:11:01.282Z,70.63
2022-08-17T22:13:29.786Z,71.53
2022-08-17T22:16:29.477Z,72.45
2022-08-17T22:18:58.257Z,67.88
2022-08-17T22:21:25.526Z,68.68
2022-08-17T22:24:05.089Z,60.25
2022-08-17T22:27:00.010Z,59.47
2022-08-17T22:30:00.202Z,58.95
2022-08-17T22:32:42.239Z,57.20
2022-08-17T22:35:26.794Z,57.40
2022-08-17T22:37:53.272Z,59.05
2022-08-17T22:40:32.026Z,58.38
2022-08-17T22:43:00.709Z,58.78
2022-08-17T22:45:29.679Z,62.63
2022-08-17T22:47:57.538Z,62.58
2022-08-17T22:50:31.451Z,64.78
2022-08-17T22:53:22.490Z,63.03
2022-08-17T22:56:12.736Z,62.97
2022-08-17T22:59:08.617Z,64.88
2022-08-17T23:01:35.459Z,63.90
2022-08-17T23:04:15.911Z,63.42
2022-08-17T23:06:42.484Z,67.50
2022-08-17T23:09:09.204Z,70.05
2022-08-17T23:11:49.958Z,68.10
2022-08-17T23:14:19.022Z,70.07
2022-08-17T23:16:45.565Z,75.63
2022-08-17T23:19:15.378Z,64.43
2022-08-17T23:21:44.633Z,68.10
2022-08-17T23:24:16.012Z,72.63
2022-08-17T23:26:42.442Z,71.28
2022-08-17T23:29:09.328Z,71.13
2022-08-17T23:31:38.442Z,68.15
2022-08-17T23:34:08.993Z,62.40
2022-08-17T23:36:35.937Z,64.68
2022-08-17T23:39:02.673Z,72.88
2022-08-17T23:41:34.412Z,67.32
2022-08-17T23:44:01.722Z,74.07
2022-08-17T23:46:28.161Z,80.20
2022-08-17T23:48:54.618Z,87.68
2022-08-17T23:51:26.302Z,85.97
2022-08-17T23:53:55.405Z,83.15
2022-08-17T23:56:25.697Z,87.00
2022-08-17T23:58:54.658Z,84.72
